Time;durP1;ratioP1;P1;durP2;ratioP2;P2;SDS_P1;SDS_P2;PMS_P1;PMS_P2;Temp;Humidity;BMP_temperature;BMP_pressure;BME280_temperature;BME280_humidity;BME280_pressure;Samples;Min_cycle;Max_cycle;Signal;HPM_P1;HPM_P2
2023/01/04 00:02:22;;;;;;;0.70;0.70;;;;;;;;;;4896678;29;20463;-80
2023/01/04 00:04:49;;;;;;;0.77;0.77;;;;;;;;;;4891335;29;21076;-78
2023/01/04 00:07:16;;;;;;;0.70;0.70;;;;;;;;;;4895906;29;20525;-79
2023/01/04 00:09:45;;;;;;;0.70;0.67;;;;;;;;;;4891442;29;20540;-79
2023/01/04 00:12:15;;;;;;;0.70;0.60;;;;;;;;;;4904189;29;20494;-80
2023/01/04 00:14:41;;;;;;;0.70;0.70;;;;;;;;;;4889713;29;20523;-80
2023/01/04 00:17:08;;;;;;;0.70;0.70;;;;;;;;;;4890494;29;20451;-81
2023/01/04 00:19:35;;;;;;;0.70;0.60;;;;;;;;;;4898765;29;20458;-80
2023/01/04 00:22:02;;;;;;;0.70;0.60;;;;;;;;;;4887636;29;20466;-78
2023/01/04 00:24:30;;;;;;;0.70;0.70;;;;;;;;;;4888498;29;20455;-80
2023/01/04 00:26:56;;;;;;;0.80;0.80;;;;;;;;;;4888950;29;20466;-80
2023/01/04 00:29:24;;;;;;;0.80;0.80;;;;;;;;;;4892166;29;20468;-79
2023/01/04 00:31:51;;;;;;;0.70;0.70;;;;;;;;;;4894658;29;20524;-79
2023/01/04 00:34:19;;;;;;;1.17;1.07;;;;;;;;;;4885528;29;20460;-78
2023/01/04 00:36:46;;;;;;;0.70;0.70;;;;;;;;;;4894864;29;20439;-78
2023/01/04 00:39:14;;;;;;;0.70;0.60;;;;;;;;;;4891310;29;20486;-79
2023/01/04 00:41:42;;;;;;;0.70;0.63;;;;;;;;;;4891131;29;20538;-78
2023/01/04 00:44:27;;;;;;;0.70;0.60;;;;;;;;;;4897108;29;21104;-78
2023/01/04 00:46:55;;;;;;;0.70;0.60;;;;;;;;;;4888401;29;20487;-79
2023/01/04 00:49:21;;;;;;;0.70;0.60;;;;;;;;;;4896134;29;20469;-79
2023/01/04 00:51:49;;;;;;;0.70;0.60;;;;;;;;;;4891348;29;20440;-79
2023/01/04 00:54:17;;;;;;;0.70;0.70;;;;;;;;;;4904637;29;20473;-78
2023/01/04 00:56:44;;;;;;;0.70;0.60;;;;;;;;;;4899710;29;20478;-79
2023/01/04 00:59:11;;;;;;;0.70;0.63;;;;;;;;;;4889503;29;20461;-79
2023/01/04 01:01:40;;;;;;;0.70;0.70;;;;;;;;;;4899206;29;21735;-80
2023/01/04 01:04:09;;;;;;;0.73;0.70;;;;;;;;;;4895770;29;20840;-79
2023/01/04 01:06:35;;;;;;;0.70;0.60;;;;;;;;;;4889625;29;20461;-80
2023/01/04 01:09:03;;;;;;;0.70;0.60;;;;;;;;;;4896339;29;20453;-81
2023/01/04 01:11:30;;;;;;;0.70;0.70;;;;;;;;;;4881375;29;20522;-81
2023/01/04 01:13:57;;;;;;;0.70;0.60;;;;;;;;;;4894853;29;20490;-80
2023/01/04 01:16:25;;;;;;;0.70;0.70;;;;;;;;;;4888991;29;20975;-80
2023/01/04 01:19:13;;;;;;;0.70;0.70;;;;;;;;;;4890063;29;20470;-82
2023/01/04 01:21:41;;;;;;;0.70;0.60;;;;;;;;;;4895383;29;20457;-81
2023/01/04 01:24:08;;;;;;;0.70;0.70;;;;;;;;;;4895837;29;20471;-82
2023/01/04 01:26:35;;;;;;;0.60;0.60;;;;;;;;;;4879691;29;20836;-83
2023/01/04 01:29:02;;;;;;;0.70;0.60;;;;;;;;;;4900127;29;20832;-81
2023/01/04 01:31:29;;;;;;;6.87;2.03;;;;;;;;;;4894540;29;20506;-82
2023/01/04 01:33:56;;;;;;;0.70;0.60;;;;;;;;;;4884605;29;20574;-82
2023/01/04 01:36:27;;;;;;;0.70;0.60;;;;;;;;;;4895335;29;20463;-81
2023/01/04 01:38:55;;;;;;;0.60;0.60;;;;;;;;;;4887973;29;20479;-81
2023/01/04 01:41:22;;;;;;;0.70;0.60;;;;;;;;;;4887708;29;20455;-80
2023/01/04 01:43:53;;;;;;;0.70;0.67;;;;;;;;;;4893465;29;20428;-84
2023/01/04 01:46:22;;;;;;;0.70;0.60;;;;;;;;;;4896078;29;20576;-81
2023/01/04 01:48:51;;;;;;;0.60;0.60;;;;;;;;;;4888586;29;20487;-80
2023/01/04 01:51:18;;;;;;;0.70;0.60;;;;;;;;;;4904191;29;20456;-80
2023/01/04 01:53:48;;;;;;;0.63;0.60;;;;;;;;;;4886626;29;20510;-80
2023/01/04 01:56:16;;;;;;;0.70;0.60;;;;;;;;;;4887247;29;20543;-80
2023/01/04 01:58:44;;;;;;;0.67;0.60;;;;;;;;;;4883845;29;20470;-78
2023/01/04 02:01:11;;;;;;;0.70;0.60;;;;;;;;;;4869061;29;20513;-79
2023/01/04 02:03:39;;;;;;;0.70;0.60;;;;;;;;;;4884086;29;20549;-81
2023/01/04 02:06:10;;;;;;;0.60;0.60;;;;;;;;;;4889116;29;20443;-82
2023/01/04 02:08:38;;;;;;;0.60;0.60;;;;;;;;;;4890993;29;20821;-81
2023/01/04 02:11:09;;;;;;;0.70;0.70;;;;;;;;;;4883791;29;20963;-80
2023/01/04 02:16:32;;;;;;;0.60;0.60;;;;;;;;;;4885248;29;20459;-79
2023/01/04 02:19:14;;;;;;;2.10;2.00;;;;;;;;;;4898928;29;20454;-79
2023/01/04 02:21:52;;;;;;;0.60;0.60;;;;;;;;;;4886682;29;20443;-80
2023/01/04 02:24:32;;;;;;;0.60;0.60;;;;;;;;;;4898995;29;20435;-81
2023/01/04 02:27:24;;;;;;;0.67;0.60;;;;;;;;;;4880204;29;20459;-83
2023/01/04 02:30:13;;;;;;;0.60;0.60;;;;;;;;;;4850892;29;20960;-81
2023/01/04 02:32:51;;;;;;;0.60;0.60;;;;;;;;;;4876358;29;20477;-80
2023/01/04 02:35:26;;;;;;;0.70;0.60;;;;;;;;;;4895387;29;20918;-81
2023/01/04 02:38:07;;;;;;;1.73;1.33;;;;;;;;;;4898467;29;20427;-80
2023/01/04 02:40:42;;;;;;;0.70;0.63;;;;;;;;;;4886088;29;20462;-80
2023/01/04 02:46:12;;;;;;;0.60;0.60;;;;;;;;;;4906534;29;20467;-81
2023/01/04 02:51:39;;;;;;;0.90;0.90;;;;;;;;;;4903263;29;20882;-82
2023/01/04 02:54:10;;;;;;;0.70;0.70;;;;;;;;;;4885135;29;20473;-87
2023/01/04 02:56:44;;;;;;;0.70;0.60;;;;;;;;;;4867824;29;20864;-83
2023/01/04 02:59:22;;;;;;;0.67;0.60;;;;;;;;;;4886402;29;20470;-83
2023/01/04 03:06:14;;;;;;;0.70;0.70;;;;;;;;;;4887700;29;21010;-84
2023/01/04 03:08:29;;;;;;;0.70;0.70;;;;;;;;;;4888150;29;21012;-87
2023/01/04 03:11:02;;;;;;;0.70;0.70;;;;;;;;;;4895421;29;20457;-84
2023/01/04 03:13:35;;;;;;;0.70;0.70;;;;;;;;;;4887811;29;21053;-84
2023/01/04 03:16:09;;;;;;;0.70;0.60;;;;;;;;;;4898893;29;20470;-90
2023/01/04 03:18:40;;;;;;;0.60;0.60;;;;;;;;;;4886361;29;20474;-87
2023/01/04 03:21:14;;;;;;;0.70;0.70;;;;;;;;;;4890402;29;20458;-85
2023/01/04 03:35:41;;;;;;;0.60;0.60;;;;;;;;;;4885338;29;20503;-85
2023/01/04 03:49:57;;;;;;;0.70;0.60;;;;;;;;;;4889366;29;20498;-85
2023/01/04 03:52:28;;;;;;;0.60;0.60;;;;;;;;;;4895240;29;20438;-85
2023/01/04 03:55:01;;;;;;;0.60;0.60;;;;;;;;;;4892125;29;20486;-78
2023/01/04 03:57:32;;;;;;;0.60;0.60;;;;;;;;;;4869616;29;20465;-87
2023/01/04 04:00:01;;;;;;;0.70;0.60;;;;;;;;;;4890877;29;20541;-84
2023/01/04 04:02:31;;;;;;;0.70;0.60;;;;;;;;;;4890926;29;20476;-89
2023/01/04 04:10:34;;;;;;;0.60;0.60;;;;;;;;;;4885885;29;20439;-85
2023/01/04 04:13:00;;;;;;;0.67;0.60;;;;;;;;;;4891701;29;20452;-82
2023/01/04 04:15:27;;;;;;;0.70;0.60;;;;;;;;;;4887088;29;20447;-87
2023/01/04 04:17:54;;;;;;;0.70;0.70;;;;;;;;;;4907283;29;20480;-86
2023/01/04 04:20:21;;;;;;;0.70;0.60;;;;;;;;;;4910686;29;20501;-82
2023/01/04 04:22:48;;;;;;;0.70;0.60;;;;;;;;;;4904226;29;20474;-85
2023/01/04 04:25:14;;;;;;;0.80;0.80;;;;;;;;;;4885372;29;20994;-86
2023/01/04 04:27:43;;;;;;;0.60;0.60;;;;;;;;;;4896706;29;20450;-86
2023/01/04 04:30:10;;;;;;;0.70;0.70;;;;;;;;;;4889388;29;20546;-88
2023/01/04 04:32:37;;;;;;;0.70;0.67;;;;;;;;;;4890246;29;21076;-82
2023/01/04 04:35:05;;;;;;;0.70;0.70;;;;;;;;;;4895675;29;20481;-79
2023/01/04 04:37:33;;;;;;;0.60;0.57;;;;;;;;;;4896503;29;20528;-86
2023/01/04 04:40:00;;;;;;;1.87;1.77;;;;;;;;;;4886814;29;20478;-85
2023/01/04 04:42:27;;;;;;;0.73;0.73;;;;;;;;;;4887011;29;20773;-85
2023/01/04 04:44:55;;;;;;;0.70;0.60;;;;;;;;;;4897927;29;20777;-86
2023/01/04 04:47:22;;;;;;;0.70;0.63;;;;;;;;;;4890371;29;20494;-86
2023/01/04 04:49:49;;;;;;;0.70;0.60;;;;;;;;;;4889944;29;20532;-86
2023/01/04 04:52:16;;;;;;;0.70;0.70;;;;;;;;;;4898704;29;20559;-88
2023/01/04 04:54:43;;;;;;;0.70;0.70;;;;;;;;;;4896844;29;20478;-80
2023/01/04 04:57:10;;;;;;;0.60;0.60;;;;;;;;;;4897737;29;20991;-82
2023/01/04 04:59:39;;;;;;;0.70;0.70;;;;;;;;;;4887547;29;20450;-89
2023/01/04 05:02:10;;;;;;;0.70;0.70;;;;;;;;;;4904053;29;20856;-87
2023/01/04 05:04:38;;;;;;;0.70;0.70;;;;;;;;;;4895383;29;20495;-87
2023/01/04 05:07:05;;;;;;;0.60;0.60;;;;;;;;;;4885058;29;20522;-87
2023/01/04 05:09:38;;;;;;;0.60;0.60;;;;;;;;;;4886172;29;20466;-85
2023/01/04 05:14:51;;;;;;;0.60;0.60;;;;;;;;;;4885792;29;20471;-85
2023/01/04 05:17:19;;;;;;;0.63;0.60;;;;;;;;;;4897379;29;20487;-84
2023/01/04 05:19:46;;;;;;;0.60;0.60;;;;;;;;;;4896580;29;20544;-86
2023/01/04 05:22:13;;;;;;;0.70;0.67;;;;;;;;;;4877868;29;20459;-87
2023/01/04 05:24:40;;;;;;;0.60;0.60;;;;;;;;;;4897637;29;20443;-86
2023/01/04 05:27:07;;;;;;;0.70;0.70;;;;;;;;;;4896795;29;20992;-85
2023/01/04 05:32:25;;;;;;;0.70;0.70;;;;;;;;;;4887370;29;20483;-85
2023/01/04 05:34:52;;;;;;;0.70;0.70;;;;;;;;;;4875543;29;20469;-80
2023/01/04 05:37:19;;;;;;;0.70;0.70;;;;;;;;;;4884040;29;20452;-87
2023/01/04 05:39:46;;;;;;;0.70;0.67;;;;;;;;;;4891563;29;20460;-84
2023/01/04 05:42:25;;;;;;;0.70;0.70;;;;;;;;;;4892476;29;20535;-86
2023/01/04 05:44:52;;;;;;;0.70;0.70;;;;;;;;;;4886871;29;20444;-83
2023/01/04 05:47:23;;;;;;;0.70;0.70;;;;;;;;;;4881263;29;21007;-84
2023/01/04 05:49:50;;;;;;;0.70;0.60;;;;;;;;;;4888206;29;20530;-84
2023/01/04 05:52:18;;;;;;;0.70;0.60;;;;;;;;;;4888519;29;20439;-83
2023/01/04 05:54:44;;;;;;;0.70;0.60;;;;;;;;;;4888423;29;20816;-84
2023/01/04 05:57:12;;;;;;;0.70;0.70;;;;;;;;;;4896073;29;20452;-83
2023/01/04 05:59:39;;;;;;;0.70;0.70;;;;;;;;;;4887542;29;20969;-77
2023/01/04 06:02:13;;;;;;;0.70;0.70;;;;;;;;;;4906763;29;20451;-81
2023/01/04 06:04:41;;;;;;;0.73;0.73;;;;;;;;;;4900483;29;20454;-83
2023/01/04 06:07:08;;;;;;;0.70;0.63;;;;;;;;;;4898715;29;20461;-83
2023/01/04 06:09:35;;;;;;;0.70;0.60;;;;;;;;;;4891974;29;20451;-81
2023/01/04 06:12:02;;;;;;;0.70;0.70;;;;;;;;;;4897105;29;20468;-83
2023/01/04 06:14:29;;;;;;;0.70;0.70;;;;;;;;;;4889586;29;21071;-81
2023/01/04 06:16:56;;;;;;;0.80;0.80;;;;;;;;;;4897014;29;20435;-83
2023/01/04 06:19:23;;;;;;;0.67;0.60;;;;;;;;;;4889171;29;20811;-85
2023/01/04 06:21:51;;;;;;;0.70;0.60;;;;;;;;;;4890544;29;20440;-83
2023/01/04 06:24:18;;;;;;;0.70;0.70;;;;;;;;;;4891329;29;20478;-83
2023/01/04 06:26:45;;;;;;;0.67;0.60;;;;;;;;;;4883037;29;20471;-83
2023/01/04 06:29:12;;;;;;;0.80;0.80;;;;;;;;;;4898678;29;20447;-83
2023/01/04 06:31:39;;;;;;;0.70;0.60;;;;;;;;;;4895212;29;20477;-84
2023/01/04 06:34:07;;;;;;;0.70;0.63;;;;;;;;;;4890925;29;20514;-82
2023/01/04 06:36:34;;;;;;;0.70;0.70;;;;;;;;;;4891848;29;20480;-88
2023/01/04 06:39:03;;;;;;;0.70;0.70;;;;;;;;;;4893403;29;20502;-84
2023/01/04 06:41:30;;;;;;;0.70;0.70;;;;;;;;;;4887807;29;20971;-86
2023/01/04 06:43:57;;;;;;;0.70;0.60;;;;;;;;;;4895687;29;20538;-86
2023/01/04 06:46:24;;;;;;;0.70;0.60;;;;;;;;;;4891871;29;20444;-86
2023/01/04 06:48:52;;;;;;;0.70;0.60;;;;;;;;;;4887602;29;20490;-80
2023/01/04 06:51:19;;;;;;;1.90;0.83;;;;;;;;;;4896865;29;20452;-84
2023/01/04 06:53:45;;;;;;;0.70;0.67;;;;;;;;;;4899025;29;20900;-82
2023/01/04 06:56:14;;;;;;;0.70;0.70;;;;;;;;;;4897556;29;20466;-80
2023/01/04 06:58:41;;;;;;;0.70;0.70;;;;;;;;;;4896452;29;20488;-83
2023/01/04 07:01:09;;;;;;;0.63;0.60;;;;;;;;;;4898344;29;20520;-84
2023/01/04 07:03:36;;;;;;;0.70;0.63;;;;;;;;;;4894389;29;20466;-82
2023/01/04 07:06:05;;;;;;;0.70;0.67;;;;;;;;;;4897474;29;20467;-81
2023/01/04 07:08:32;;;;;;;0.70;0.70;;;;;;;;;;4897987;29;20505;-82
2023/01/04 07:10:59;;;;;;;0.70;0.60;;;;;;;;;;4894317;29;20476;-83
2023/01/04 07:13:30;;;;;;;0.70;0.67;;;;;;;;;;4895497;29;20539;-83
2023/01/04 07:15:57;;;;;;;0.70;0.70;;;;;;;;;;4897093;29;20565;-85
2023/01/04 07:18:27;;;;;;;0.70;0.70;;;;;;;;;;4896432;29;20485;-80
2023/01/04 07:20:54;;;;;;;0.70;0.60;;;;;;;;;;4878822;29;20507;-84
2023/01/04 07:23:21;;;;;;;0.70;0.60;;;;;;;;;;4897586;29;20518;-83
2023/01/04 07:25:48;;;;;;;0.73;0.70;;;;;;;;;;4898777;29;20821;-80
2023/01/04 07:31:15;;;;;;;0.70;0.70;;;;;;;;;;4874154;29;20449;-84
2023/01/04 07:33:43;;;;;;;0.80;0.80;;;;;;;;;;4897818;29;20565;-82
2023/01/04 07:36:10;;;;;;;0.70;0.70;;;;;;;;;;4894791;29;20564;-81
2023/01/04 07:38:37;;;;;;;0.70;0.60;;;;;;;;;;4890768;29;20451;-82
2023/01/04 07:41:04;;;;;;;0.70;0.70;;;;;;;;;;4893080;29;20850;-83
2023/01/04 07:43:36;;;;;;;0.70;0.70;;;;;;;;;;4897634;29;20519;-83
2023/01/04 07:46:05;;;;;;;0.70;0.70;;;;;;;;;;4903728;29;20491;-81
2023/01/04 07:48:35;;;;;;;0.73;0.73;;;;;;;;;;4882975;29;20498;-82
2023/01/04 07:51:04;;;;;;;0.70;0.70;;;;;;;;;;4894264;29;20479;-82
2023/01/04 07:53:34;;;;;;;0.70;0.70;;;;;;;;;;4900641;29;20455;-83
2023/01/04 07:56:01;;;;;;;0.70;0.70;;;;;;;;;;4892773;29;20986;-80
2023/01/04 07:58:30;;;;;;;0.70;0.60;;;;;;;;;;4902227;29;20510;-81
2023/01/04 08:01:04;;;;;;;0.70;0.60;;;;;;;;;;4920683;29;20879;-81
2023/01/04 08:03:31;;;;;;;0.70;0.70;;;;;;;;;;4915150;29;20476;-80
2023/01/04 08:06:03;;;;;;;0.70;0.70;;;;;;;;;;4902255;29;20433;-79
2023/01/04 08:08:30;;;;;;;0.70;0.60;;;;;;;;;;4893853;29;20548;-80
2023/01/04 08:11:01;;;;;;;0.70;0.60;;;;;;;;;;4896892;29;20484;-83
2023/01/04 08:13:31;;;;;;;0.70;0.70;;;;;;;;;;4902757;29;20541;-80
2023/01/04 08:15:59;;;;;;;0.70;0.60;;;;;;;;;;4887736;29;20558;-82
2023/01/04 08:18:27;;;;;;;0.70;0.60;;;;;;;;;;4909789;29;20612;-81
2023/01/04 08:21:00;;;;;;;0.70;0.60;;;;;;;;;;4902675;29;20459;-80
2023/01/04 08:23:28;;;;;;;0.70;0.60;;;;;;;;;;4903724;29;20818;-81
2023/01/04 08:25:55;;;;;;;0.70;0.70;;;;;;;;;;4897564;29;20449;-80
2023/01/04 08:28:22;;;;;;;0.80;0.80;;;;;;;;;;4903696;29;20464;-82
2023/01/04 08:30:49;;;;;;;0.70;0.70;;;;;;;;;;4895029;29;20435;-82
2023/01/04 08:33:18;;;;;;;0.70;0.70;;;;;;;;;;4915472;29;20478;-80
2023/01/04 08:35:45;;;;;;;0.70;0.60;;;;;;;;;;4899774;29;20477;-82
2023/01/04 08:38:12;;;;;;;0.70;0.70;;;;;;;;;;4906337;29;20488;-79
2023/01/04 08:41:00;;;;;;;0.70;0.60;;;;;;;;;;4900065;29;20452;-81
2023/01/04 08:43:47;;;;;;;0.60;0.60;;;;;;;;;;4899312;29;20962;-82
2023/01/04 08:46:15;;;;;;;0.70;0.70;;;;;;;;;;4898032;29;20490;-82
2023/01/04 08:48:42;;;;;;;1.73;1.63;;;;;;;;;;4909610;29;20505;-82
2023/01/04 08:51:10;;;;;;;0.70;0.70;;;;;;;;;;4899660;29;20470;-84
2023/01/04 08:53:37;;;;;;;0.70;0.60;;;;;;;;;;4910285;29;20453;-81
2023/01/04 08:56:06;;;;;;;0.70;0.70;;;;;;;;;;4903531;29;20577;-81
2023/01/04 08:58:35;;;;;;;0.70;0.70;;;;;;;;;;4899356;29;20944;-84
2023/01/04 09:01:04;;;;;;;0.70;0.70;;;;;;;;;;4897121;29;20475;-84
2023/01/04 09:03:31;;;;;;;0.70;0.60;;;;;;;;;;4894005;29;20459;-82
2023/01/04 09:06:01;;;;;;;0.70;0.70;;;;;;;;;;4896505;29;20448;-82
2023/01/04 09:08:29;;;;;;;0.70;0.70;;;;;;;;;;4897537;29;20455;-82
2023/01/04 09:10:56;;;;;;;0.70;0.70;;;;;;;;;;4898515;29;20491;-84
2023/01/04 09:13:25;;;;;;;0.77;0.77;;;;;;;;;;4895372;29;20456;-84
2023/01/04 09:15:53;;;;;;;0.70;0.70;;;;;;;;;;4899268;29;20518;-85
2023/01/04 09:18:21;;;;;;;0.80;0.80;;;;;;;;;;4895739;29;20483;-82
2023/01/04 09:21:00;;;;;;;0.70;0.70;;;;;;;;;;4899498;29;21001;-81
2023/01/04 09:23:29;;;;;;;0.70;0.70;;;;;;;;;;4890265;29;20436;-83
2023/01/04 09:25:57;;;;;;;0.80;0.80;;;;;;;;;;4899096;29;20459;-81
2023/01/04 09:28:24;;;;;;;0.70;0.60;;;;;;;;;;4890841;29;20932;-84
2023/01/04 09:30:52;;;;;;;0.80;0.80;;;;;;;;;;4891535;29;20448;-84
2023/01/04 09:33:19;;;;;;;0.70;0.70;;;;;;;;;;4893421;29;20463;-84
2023/01/04 09:35:46;;;;;;;0.70;0.70;;;;;;;;;;4897620;29;20531;-83
2023/01/04 09:38:13;;;;;;;0.70;0.70;;;;;;;;;;4899110;29;20465;-85
2023/01/04 09:40:52;;;;;;;0.70;0.67;;;;;;;;;;4893221;29;20479;-83
2023/01/04 09:43:21;;;;;;;0.70;0.70;;;;;;;;;;4895944;29;20443;-81
2023/01/04 09:45:51;;;;;;;0.70;0.70;;;;;;;;;;4891300;29;20457;-84
2023/01/04 09:48:23;;;;;;;0.70;0.60;;;;;;;;;;4893368;29;20485;-83
2023/01/04 09:50:53;;;;;;;0.80;0.70;;;;;;;;;;4886988;29;20940;-84
2023/01/04 09:53:21;;;;;;;0.70;0.70;;;;;;;;;;4877008;29;20471;-84
2023/01/04 09:55:50;;;;;;;0.70;0.70;;;;;;;;;;4905258;29;20487;-83
2023/01/04 09:58:23;;;;;;;0.70;0.60;;;;;;;;;;4891067;29;20520;-81
2023/01/04 10:00:54;;;;;;;0.70;0.70;;;;;;;;;;4898606;29;20434;-81
2023/01/04 10:03:27;;;;;;;0.70;0.70;;;;;;;;;;4896945;29;20483;-81
2023/01/04 10:05:59;;;;;;;0.73;0.70;;;;;;;;;;4895947;29;20455;-82
2023/01/04 10:08:27;;;;;;;0.70;0.70;;;;;;;;;;4873788;29;20489;-83
2023/01/04 10:11:01;;;;;;;0.70;0.70;;;;;;;;;;4895257;29;20459;-81
2023/01/04 10:13:34;;;;;;;0.90;0.90;;;;;;;;;;4898020;29;20456;-83
2023/01/04 10:16:09;;;;;;;0.70;0.70;;;;;;;;;;4888593;29;20478;-82
2023/01/04 10:18:42;;;;;;;0.70;0.67;;;;;;;;;;4888730;29;20463;-81
2023/01/04 10:21:36;;;;;;;0.70;0.70;;;;;;;;;;4897120;29;20548;-83
2023/01/04 10:24:23;;;;;;;0.70;0.60;;;;;;;;;;4887938;29;20541;-82
2023/01/04 10:26:50;;;;;;;0.70;0.70;;;;;;;;;;4896794;29;20970;-82
2023/01/04 10:29:35;;;;;;;0.70;0.70;;;;;;;;;;4905408;29;20823;-84
2023/01/04 10:32:04;;;;;;;0.70;0.70;;;;;;;;;;4903583;29;20551;-83
2023/01/04 10:34:37;;;;;;;0.70;0.70;;;;;;;;;;4895751;29;20462;-81
2023/01/04 10:37:12;;;;;;;0.70;0.60;;;;;;;;;;4888949;29;20527;-82
2023/01/04 10:39:39;;;;;;;0.70;0.70;;;;;;;;;;4897070;29;20471;-86
2023/01/04 10:42:11;;;;;;;0.70;0.70;;;;;;;;;;4904265;29;21006;-87
2023/01/04 10:44:43;;;;;;;1.00;1.00;;;;;;;;;;4897788;29;20462;-84
2023/01/04 10:47:14;;;;;;;0.70;0.70;;;;;;;;;;4892580;29;20455;-87
2023/01/04 10:49:45;;;;;;;0.70;0.63;;;;;;;;;;4897213;29;20458;-89
2023/01/04 10:52:15;;;;;;;0.70;0.70;;;;;;;;;;4895428;29;20457;-85
2023/01/04 10:54:47;;;;;;;0.70;0.60;;;;;;;;;;4898687;29;20459;-86
2023/01/04 10:57:18;;;;;;;0.70;0.70;;;;;;;;;;4895625;29;20476;-86
2023/01/04 10:59:49;;;;;;;0.70;0.70;;;;;;;;;;4906587;29;20446;-85
2023/01/04 11:02:20;;;;;;;0.70;0.67;;;;;;;;;;4892357;29;20473;-84
2023/01/04 11:04:52;;;;;;;0.70;0.70;;;;;;;;;;4889873;29;20448;-88
2023/01/04 11:07:23;;;;;;;0.70;0.60;;;;;;;;;;4899154;29;20522;-86
2023/01/04 11:09:52;;;;;;;0.80;0.73;;;;;;;;;;4898106;29;20489;-90
2023/01/04 11:12:20;;;;;;;0.83;0.83;;;;;;;;;;4895530;29;20995;-81
2023/01/04 11:14:47;;;;;;;0.70;0.70;;;;;;;;;;4894964;29;20550;-81
2023/01/04 11:17:15;;;;;;;0.67;0.67;;;;;;;;;;4890268;29;20486;-81
2023/01/04 11:19:44;;;;;;;0.70;0.60;;;;;;;;;;4887451;29;20453;-82
2023/01/04 11:22:15;;;;;;;0.70;0.70;;;;;;;;;;4894113;29;20448;-82
2023/01/04 11:24:43;;;;;;;0.70;0.60;;;;;;;;;;4904748;29;20528;-83
2023/01/04 11:27:34;;;;;;;1.20;1.10;;;;;;;;;;4890933;29;20564;-82
2023/01/04 11:30:04;;;;;;;0.70;0.70;;;;;;;;;;4892323;29;20452;-84
2023/01/04 11:32:34;;;;;;;0.70;0.60;;;;;;;;;;4897776;29;20867;-81
2023/01/04 11:35:01;;;;;;;0.80;0.80;;;;;;;;;;4896083;29;20476;-81
2023/01/04 11:37:34;;;;;;;0.70;0.60;;;;;;;;;;4893947;29;20476;-83
2023/01/04 11:40:20;;;;;;;0.70;0.70;;;;;;;;;;4894204;29;20454;-83
2023/01/04 11:43:09;;;;;;;0.73;0.73;;;;;;;;;;4886745;29;20460;-80
2023/01/04 11:45:36;;;;;;;0.70;0.70;;;;;;;;;;4911231;29;20469;-82
2023/01/04 11:48:05;;;;;;;0.70;0.70;;;;;;;;;;4897172;29;20519;-81
2023/01/04 11:50:40;;;;;;;0.70;0.70;;;;;;;;;;4893731;29;20475;-83
2023/01/04 11:53:22;;;;;;;0.70;0.70;;;;;;;;;;4901607;29;20497;-83
2023/01/04 11:55:49;;;;;;;0.70;0.70;;;;;;;;;;4900024;29;20929;-84
2023/01/04 11:58:17;;;;;;;0.70;0.70;;;;;;;;;;4907436;29;20507;-79
2023/01/04 12:00:49;;;;;;;0.70;0.60;;;;;;;;;;4899855;29;20465;-82
2023/01/04 12:03:20;;;;;;;0.70;0.70;;;;;;;;;;4896770;29;20852;-82
2023/01/04 12:05:46;;;;;;;0.70;0.60;;;;;;;;;;4901263;29;20426;-83
2023/01/04 12:08:21;;;;;;;0.70;0.70;;;;;;;;;;4912972;29;20458;-82
2023/01/04 12:10:50;;;;;;;0.70;0.70;;;;;;;;;;4902018;29;20458;-84
2023/01/04 12:13:19;;;;;;;0.70;0.70;;;;;;;;;;4897150;29;20450;-84
2023/01/04 12:15:51;;;;;;;0.67;0.60;;;;;;;;;;4894400;29;20457;-79
2023/01/04 12:18:21;;;;;;;0.70;0.70;;;;;;;;;;4884111;29;20540;-81
2023/01/04 12:20:48;;;;;;;0.90;0.90;;;;;;;;;;4894276;29;20502;-86
2023/01/04 12:23:15;;;;;;;0.70;0.70;;;;;;;;;;4892913;29;20444;-80
2023/01/04 12:25:44;;;;;;;0.70;0.70;;;;;;;;;;4897730;29;20470;-79
2023/01/04 12:28:26;;;;;;;0.70;0.60;;;;;;;;;;4894456;29;20454;-84
2023/01/04 12:30:55;;;;;;;0.70;0.60;;;;;;;;;;4903358;29;20456;-84
2023/01/04 12:33:38;;;;;;;0.70;0.60;;;;;;;;;;4893767;29;20472;-81
2023/01/04 12:36:06;;;;;;;0.70;0.70;;;;;;;;;;4893350;29;20468;-83
2023/01/04 12:38:52;;;;;;;0.80;0.80;;;;;;;;;;4899612;29;21003;-80
2023/01/04 12:41:20;;;;;;;0.70;0.70;;;;;;;;;;4891943;29;20495;-81
2023/01/04 12:43:48;;;;;;;0.70;0.70;;;;;;;;;;4893813;29;20855;-82
2023/01/04 12:49:42;;;;;;;0.70;0.67;;;;;;;;;;4887861;29;20480;-81
2023/01/04 12:52:30;;;;;;;0.70;0.70;;;;;;;;;;4893134;29;20443;-81
2023/01/04 12:55:42;;;;;;;0.70;0.70;;;;;;;;;;4896980;29;20958;-82
2023/01/04 12:58:31;;;;;;;0.70;0.70;;;;;;;;;;4891064;29;20868;-83
2023/01/04 13:01:23;;;;;;;0.70;0.70;;;;;;;;;;4898409;29;20858;-80
2023/01/04 13:03:54;;;;;;;0.70;0.70;;;;;;;;;;4888422;29;20465;-85
2023/01/04 13:06:32;;;;;;;0.70;0.70;;;;;;;;;;4895497;29;20557;-84
2023/01/04 13:09:00;;;;;;;0.70;0.70;;;;;;;;;;4893957;29;20456;-80
2023/01/04 13:11:48;;;;;;;0.70;0.70;;;;;;;;;;4885434;29;20988;-81
2023/01/04 13:14:19;;;;;;;0.70;0.70;;;;;;;;;;4873551;29;20843;-78
2023/01/04 13:16:53;;;;;;;0.70;0.70;;;;;;;;;;4885938;29;20498;-79
2023/01/04 13:19:21;;;;;;;0.70;0.70;;;;;;;;;;4899318;29;20486;-78
2023/01/04 13:21:51;;;;;;;0.70;0.70;;;;;;;;;;4875426;29;20459;-79
2023/01/04 13:24:20;;;;;;;0.70;0.70;;;;;;;;;;4894314;29;20446;-80
2023/01/04 13:26:50;;;;;;;0.70;0.60;;;;;;;;;;4907789;29;20498;-78
2023/01/04 13:29:18;;;;;;;0.70;0.60;;;;;;;;;;4892616;29;20812;-76
2023/01/04 13:31:51;;;;;;;0.70;0.70;;;;;;;;;;4889822;29;20437;-78
2023/01/04 13:34:21;;;;;;;0.70;0.70;;;;;;;;;;4874767;29;20820;-78
2023/01/04 13:37:12;;;;;;;0.70;0.70;;;;;;;;;;4885934;29;20956;-77
2023/01/04 13:39:41;;;;;;;0.80;0.80;;;;;;;;;;4896087;29;21084;-79
2023/01/04 13:42:13;;;;;;;0.70;0.70;;;;;;;;;;4898645;29;20498;-78
2023/01/04 13:44:53;;;;;;;0.70;0.70;;;;;;;;;;4895788;29;20460;-80
2023/01/04 13:47:43;;;;;;;0.80;0.80;;;;;;;;;;4901176;29;20496;-79
2023/01/04 13:50:22;;;;;;;0.73;0.73;;;;;;;;;;4895241;29;20452;-79
2023/01/04 13:52:48;;;;;;;0.70;0.60;;;;;;;;;;4890618;29;20923;-80
2023/01/04 13:55:33;;;;;;;0.70;0.70;;;;;;;;;;4893177;29;20458;-77
2023/01/04 13:58:01;;;;;;;0.70;0.60;;;;;;;;;;4890219;29;20473;-77
2023/01/04 14:00:30;;;;;;;0.70;0.70;;;;;;;;;;4906798;29;20471;-80
2023/01/04 14:03:19;;;;;;;0.70;0.70;;;;;;;;;;4889256;29;20839;-78
2023/01/04 14:05:48;;;;;;;0.70;0.70;;;;;;;;;;4911470;29;20438;-81
2023/01/04 14:08:19;;;;;;;0.70;0.70;;;;;;;;;;4897504;29;20433;-80
2023/01/04 14:10:47;;;;;;;0.70;0.67;;;;;;;;;;4896189;29;20458;-77
2023/01/04 14:13:16;;;;;;;0.70;0.70;;;;;;;;;;4898215;29;20469;-79
2023/01/04 14:15:43;;;;;;;0.70;0.70;;;;;;;;;;4871936;29;20481;-79
2023/01/04 14:18:26;;;;;;;0.80;0.80;;;;;;;;;;4897521;29;20486;-77
2023/01/04 14:20:54;;;;;;;0.70;0.60;;;;;;;;;;4904229;29;20838;-78
2023/01/04 14:23:25;;;;;;;0.70;0.70;;;;;;;;;;4897377;29;20850;-79
2023/01/04 14:25:55;;;;;;;0.70;0.70;;;;;;;;;;4899089;29;20499;-76
2023/01/04 14:28:27;;;;;;;0.73;0.73;;;;;;;;;;4895316;29;20468;-80
2023/01/04 14:31:10;;;;;;;0.70;0.60;;;;;;;;;;4897689;29;20502;-80
2023/01/04 14:33:40;;;;;;;0.80;0.80;;;;;;;;;;4897980;29;20478;-78
2023/01/04 14:36:14;;;;;;;0.70;0.70;;;;;;;;;;4886770;29;20438;-78
2023/01/04 14:38:49;;;;;;;0.70;0.60;;;;;;;;;;4886804;29;20463;-81
2023/01/04 14:41:19;;;;;;;0.70;0.70;;;;;;;;;;4894400;29;20449;-79
2023/01/04 14:43:47;;;;;;;0.70;0.60;;;;;;;;;;4880671;29;20461;-83
2023/01/04 14:46:15;;;;;;;0.70;0.60;;;;;;;;;;4897814;29;20481;-76
2023/01/04 14:48:44;;;;;;;0.77;0.77;;;;;;;;;;4897634;29;20477;-79
2023/01/04 14:51:14;;;;;;;0.70;0.70;;;;;;;;;;4894932;29;20447;-77
2023/01/04 14:53:41;;;;;;;0.70;0.60;;;;;;;;;;4887472;29;20435;-79
2023/01/04 14:56:11;;;;;;;0.70;0.70;;;;;;;;;;4898564;29;20488;-78
2023/01/04 14:58:38;;;;;;;0.70;0.70;;;;;;;;;;4897410;29;20478;-76
2023/01/04 15:01:05;;;;;;;0.70;0.70;;;;;;;;;;4878374;29;20558;-77
2023/01/04 15:03:32;;;;;;;0.70;0.70;;;;;;;;;;4890645;29;20492;-78
2023/01/04 15:06:04;;;;;;;0.70;0.70;;;;;;;;;;4897023;29;20454;-81
2023/01/04 15:08:31;;;;;;;0.70;0.70;;;;;;;;;;4882318;29;20521;-79
2023/01/04 15:10:58;;;;;;;0.70;0.70;;;;;;;;;;4896683;29;21036;-76
2023/01/04 15:13:26;;;;;;;0.70;0.60;;;;;;;;;;4886581;29;20795;-78
2023/01/04 15:15:56;;;;;;;0.70;0.70;;;;;;;;;;4894025;29;20787;-78
2023/01/04 15:18:23;;;;;;;0.70;0.70;;;;;;;;;;4894411;29;20488;-79
2023/01/04 15:20:51;;;;;;;0.70;0.70;;;;;;;;;;4892099;29;20905;-77
2023/01/04 15:23:19;;;;;;;0.70;0.60;;;;;;;;;;4894305;29;20451;-76
2023/01/04 15:25:46;;;;;;;0.70;0.70;;;;;;;;;;4896918;29;21009;-79
2023/01/04 15:28:13;;;;;;;0.70;0.60;;;;;;;;;;4889895;29;20455;-80
2023/01/04 15:30:41;;;;;;;0.70;0.60;;;;;;;;;;4886776;29;20449;-76
2023/01/04 15:33:09;;;;;;;0.70;0.70;;;;;;;;;;4886805;29;20465;-77
2023/01/04 15:35:36;;;;;;;0.70;0.70;;;;;;;;;;4897034;29;20450;-79
2023/01/04 15:38:03;;;;;;;0.70;0.60;;;;;;;;;;4896550;29;21094;-76
2023/01/04 15:40:34;;;;;;;0.70;0.70;;;;;;;;;;4887954;29;20442;-78
2023/01/04 15:43:01;;;;;;;0.70;0.70;;;;;;;;;;4894068;29;20454;-79
2023/01/04 15:45:29;;;;;;;0.70;0.70;;;;;;;;;;4891960;29;20883;-77
2023/01/04 15:48:01;;;;;;;0.70;0.70;;;;;;;;;;4891695;29;20473;-77
2023/01/04 15:50:29;;;;;;;0.70;0.70;;;;;;;;;;4888298;29;20492;-78
2023/01/04 15:52:56;;;;;;;1.73;1.20;;;;;;;;;;4896480;29;20493;-79
2023/01/04 15:55:23;;;;;;;0.70;0.70;;;;;;;;;;4895551;29;20466;-78
2023/01/04 15:57:57;;;;;;;0.70;0.60;;;;;;;;;;4882837;29;20574;-80